Josephine, Alabama
Current Conditions -  °F | °C
As of 7:55 PM on Saturday 20 Dec 2014 (Local Time) from KJKA Reporting Station
Overcast Overcast  
Wind Chill: 51°   Ceiling: 800
Heat Index: 51°   Visibility: 10mi
Dew Point: 48°   Wind: 7mph
Humidity: 92%   Direction: 20°NNE
Pressure: 30.13"   Gusts: NA
Location:  30.4162°N, 87.5594°W
Report Text: KJKA 210155Z AUTO 02006KT 10SM OVC008 10/09 A3013 RMK AO2 T01040091
Loading
Personal Weather Stations






























Interactive Weather Map New forecast layout! Learn more

10-Day Weather Forecast

Advertisements
Track Severe Weather on mobile